sensor_id;sensor_type;location;lat;lon;timestamp;temperature;humidity
8888;DHT22;4480;52.370;9.748;2023-07-08T00:00:15;18.40;56.00
8888;DHT22;4480;52.370;9.748;2023-07-08T00:02:42;18.30;56.10
8888;DHT22;4480;52.370;9.748;2023-07-08T00:05:10;18.30;56.30
8888;DHT22;4480;52.370;9.748;2023-07-08T00:07:37;18.30;56.50
8888;DHT22;4480;52.370;9.748;2023-07-08T00:10:17;18.30;56.80
8888;DHT22;4480;52.370;9.748;2023-07-08T00:12:45;18.20;56.80
8888;DHT22;4480;52.370;9.748;2023-07-08T00:15:12;18.20;57.10
8888;DHT22;4480;52.370;9.748;2023-07-08T00:17:39;18.10;57.20
8888;DHT22;4480;52.370;9.748;2023-07-08T00:20:17;18.10;57.40
8888;DHT22;4480;52.370;9.748;2023-07-08T00:22:44;18.00;57.50
8888;DHT22;4480;52.370;9.748;2023-07-08T00:25:13;18.00;57.70
8888;DHT22;4480;52.370;9.748;2023-07-08T00:27:41;18.00;57.80
8888;DHT22;4480;52.370;9.748;2023-07-08T00:30:23;17.90;57.90
8888;DHT22;4480;52.370;9.748;2023-07-08T00:32:50;17.90;58.00
8888;DHT22;4480;52.370;9.748;2023-07-08T00:35:20;17.80;58.10
8888;DHT22;4480;52.370;9.748;2023-07-08T00:37:49;17.80;58.10
8888;DHT22;4480;52.370;9.748;2023-07-08T00:40:19;17.80;58.30
8888;DHT22;4480;52.370;9.748;2023-07-08T00:42:48;17.80;58.40
8888;DHT22;4480;52.370;9.748;2023-07-08T00:45:21;17.70;58.60
8888;DHT22;4480;52.370;9.748;2023-07-08T00:47:49;17.70;58.70
8888;DHT22;4480;52.370;9.748;2023-07-08T00:50:17;17.70;58.90
8888;DHT22;4480;52.370;9.748;2023-07-08T00:52:44;17.60;59.00
8888;DHT22;4480;52.370;9.748;2023-07-08T00:55:12;17.60;59.30
8888;DHT22;4480;52.370;9.748;2023-07-08T00:57:41;17.50;59.60
8888;DHT22;4480;52.370;9.748;2023-07-08T01:00:14;17.50;59.90
8888;DHT22;4480;52.370;9.748;2023-07-08T01:02:45;17.40;60.10
8888;DHT22;4480;52.370;9.748;2023-07-08T01:05:17;17.40;60.50
8888;DHT22;4480;52.370;9.748;2023-07-08T01:07:49;17.30;60.80
8888;DHT22;4480;52.370;9.748;2023-07-08T01:10:19;17.30;61.10
8888;DHT22;4480;52.370;9.748;2023-07-08T01:12:48;17.20;61.30
8888;DHT22;4480;52.370;9.748;2023-07-08T01:15:19;17.20;61.70
8888;DHT22;4480;52.370;9.748;2023-07-08T01:17:47;17.20;62.20
8888;DHT22;4480;52.370;9.748;2023-07-08T01:20:19;17.10;62.40
8888;DHT22;4480;52.370;9.748;2023-07-08T01:22:47;17.10;62.90
8888;DHT22;4480;52.370;9.748;2023-07-08T01:25:14;17.10;63.20
8888;DHT22;4480;52.370;9.748;2023-07-08T01:27:46;17.00;63.50
8888;DHT22;4480;52.370;9.748;2023-07-08T01:30:15;17.00;63.90
8888;DHT22;4480;52.370;9.748;2023-07-08T01:32:47;17.00;64.20
8888;DHT22;4480;52.370;9.748;2023-07-08T01:35:15;16.90;64.70
8888;DHT22;4480;52.370;9.748;2023-07-08T01:37:51;16.90;65.10
8888;DHT22;4480;52.370;9.748;2023-07-08T01:40:28;16.80;65.60
8888;DHT22;4480;52.370;9.748;2023-07-08T01:42:56;16.80;66.20
8888;DHT22;4480;52.370;9.748;2023-07-08T01:45:24;16.80;66.70
8888;DHT22;4480;52.370;9.748;2023-07-08T01:47:54;16.70;67.10
8888;DHT22;4480;52.370;9.748;2023-07-08T01:50:22;16.70;67.70
8888;DHT22;4480;52.370;9.748;2023-07-08T01:52:52;16.70;68.10
8888;DHT22;4480;52.370;9.748;2023-07-08T01:55:22;16.70;68.50
8888;DHT22;4480;52.370;9.748;2023-07-08T01:57:51;16.70;69.00
8888;DHT22;4480;52.370;9.748;2023-07-08T02:00:18;16.60;69.20
8888;DHT22;4480;52.370;9.748;2023-07-08T02:02:45;16.60;69.80
8888;DHT22;4480;52.370;9.748;2023-07-08T02:05:11;16.60;70.20
8888;DHT22;4480;52.370;9.748;2023-07-08T02:07:38;16.60;70.50
8888;DHT22;4480;52.370;9.748;2023-07-08T02:10:07;16.60;70.90
8888;DHT22;4480;52.370;9.748;2023-07-08T02:12:34;16.50;71.20
8888;DHT22;4480;52.370;9.748;2023-07-08T02:15:02;16.50;71.80
8888;DHT22;4480;52.370;9.748;2023-07-08T02:17:29;16.50;72.20
8888;DHT22;4480;52.370;9.748;2023-07-08T02:19:55;16.50;72.80
8888;DHT22;4480;52.370;9.748;2023-07-08T02:22:22;16.50;73.40
8888;DHT22;4480;52.370;9.748;2023-07-08T02:24:49;16.40;74.00
8888;DHT22;4480;52.370;9.748;2023-07-08T02:27:17;16.40;74.90
8888;DHT22;4480;52.370;9.748;2023-07-08T02:29:44;16.30;75.50
8888;DHT22;4480;52.370;9.748;2023-07-08T02:32:11;16.30;76.30
8888;DHT22;4480;52.370;9.748;2023-07-08T02:34:38;16.30;76.90
8888;DHT22;4480;52.370;9.748;2023-07-08T02:37:04;16.20;77.70
8888;DHT22;4480;52.370;9.748;2023-07-08T02:39:31;16.20;78.50
8888;DHT22;4480;52.370;9.748;2023-07-08T02:41:58;16.20;79.50
8888;DHT22;4480;52.370;9.748;2023-07-08T02:44:27;16.20;79.90
8888;DHT22;4480;52.370;9.748;2023-07-08T02:46:54;16.10;80.50
8888;DHT22;4480;52.370;9.748;2023-07-08T02:49:21;16.10;81.30
8888;DHT22;4480;52.370;9.748;2023-07-08T02:51:48;16.10;82.10
8888;DHT22;4480;52.370;9.748;2023-07-08T02:54:15;16.10;82.80
8888;DHT22;4480;52.370;9.748;2023-07-08T02:56:41;16.10;83.40
8888;DHT22;4480;52.370;9.748;2023-07-08T02:59:08;16.10;83.60
8888;DHT22;4480;52.370;9.748;2023-07-08T03:01:36;16.10;84.00
8888;DHT22;4480;52.370;9.748;2023-07-08T03:04:07;16.10;84.80
8888;DHT22;4480;52.370;9.748;2023-07-08T03:06:38;16.10;85.30
8888;DHT22;4480;52.370;9.748;2023-07-08T03:09:05;16.10;85.50
8888;DHT22;4480;52.370;9.748;2023-07-08T03:11:32;16.00;85.80
8888;DHT22;4480;52.370;9.748;2023-07-08T03:13:58;16.00;86.30
8888;DHT22;4480;52.370;9.748;2023-07-08T03:16:25;16.00;87.10
8888;DHT22;4480;52.370;9.748;2023-07-08T03:18:53;16.00;87.70
8888;DHT22;4480;52.370;9.748;2023-07-08T03:21:20;16.00;88.10
8888;DHT22;4480;52.370;9.748;2023-07-08T03:23:47;16.00;88.40
8888;DHT22;4480;52.370;9.748;2023-07-08T03:26:15;16.00;88.80
8888;DHT22;4480;52.370;9.748;2023-07-08T03:28:44;16.00;89.30
8888;DHT22;4480;52.370;9.748;2023-07-08T03:31:11;16.00;90.00
8888;DHT22;4480;52.370;9.748;2023-07-08T03:33:38;16.00;90.20
8888;DHT22;4480;52.370;9.748;2023-07-08T03:36:11;16.00;90.30
8888;DHT22;4480;52.370;9.748;2023-07-08T03:38:48;16.00;90.30
8888;DHT22;4480;52.370;9.748;2023-07-08T03:41:14;16.00;90.40
8888;DHT22;4480;52.370;9.748;2023-07-08T03:43:41;16.10;90.60
8888;DHT22;4480;52.370;9.748;2023-07-08T03:46:10;16.10;90.60
8888;DHT22;4480;52.370;9.748;2023-07-08T03:48:37;16.10;90.70
8888;DHT22;4480;52.370;9.748;2023-07-08T03:51:03;16.20;90.80
8888;DHT22;4480;52.370;9.748;2023-07-08T03:53:32;16.20;90.70
8888;DHT22;4480;52.370;9.748;2023-07-08T03:55:58;16.20;90.70
8888;DHT22;4480;52.370;9.748;2023-07-08T03:58:25;16.20;90.80
8888;DHT22;4480;52.370;9.748;2023-07-08T04:00:52;16.40;91.00
8888;DHT22;4480;52.370;9.748;2023-07-08T04:03:18;16.80;90.90
8888;DHT22;4480;52.370;9.748;2023-07-08T04:05:45;17.30;89.80
8888;DHT22;4480;52.370;9.748;2023-07-08T04:08:12;17.90;86.40
8888;DHT22;4480;52.370;9.748;2023-07-08T04:11:54;18.70;79.60
8888;DHT22;4480;52.370;9.748;2023-07-08T04:14:21;19.20;76.60
8888;DHT22;4480;52.370;9.748;2023-07-08T04:16:51;19.60;73.60
8888;DHT22;4480;52.370;9.748;2023-07-08T04:19:19;20.00;70.80
8888;DHT22;4480;52.370;9.748;2023-07-08T04:21:49;20.30;69.00
8888;DHT22;4480;52.370;9.748;2023-07-08T04:24:17;20.50;67.10
8888;DHT22;4480;52.370;9.748;2023-07-08T04:26:44;20.80;65.50
8888;DHT22;4480;52.370;9.748;2023-07-08T04:29:16;21.00;64.00
8888;DHT22;4480;52.370;9.748;2023-07-08T04:31:43;21.20;62.50
8888;DHT22;4480;52.370;9.748;2023-07-08T04:34:10;21.40;61.50
8888;DHT22;4480;52.370;9.748;2023-07-08T04:36:37;21.60;60.60
8888;DHT22;4480;52.370;9.748;2023-07-08T04:39:05;21.70;59.80
8888;DHT22;4480;52.370;9.748;2023-07-08T04:41:32;21.90;59.10
8888;DHT22;4480;52.370;9.748;2023-07-08T04:43:59;22.00;58.40
8888;DHT22;4480;52.370;9.748;2023-07-08T04:46:33;22.10;57.80
8888;DHT22;4480;52.370;9.748;2023-07-08T04:49:02;22.20;57.30
8888;DHT22;4480;52.370;9.748;2023-07-08T04:51:30;22.30;57.00
8888;DHT22;4480;52.370;9.748;2023-07-08T04:53:57;22.40;56.70
8888;DHT22;4480;52.370;9.748;2023-07-08T04:56:25;22.50;56.20
8888;DHT22;4480;52.370;9.748;2023-07-08T04:58:52;22.50;55.80
8888;DHT22;4480;52.370;9.748;2023-07-08T05:01:19;22.50;55.40
8888;DHT22;4480;52.370;9.748;2023-07-08T05:03:47;22.60;55.30
8888;DHT22;4480;52.370;9.748;2023-07-08T05:06:13;22.60;55.00
8888;DHT22;4480;52.370;9.748;2023-07-08T05:08:40;22.70;54.80
8888;DHT22;4480;52.370;9.748;2023-07-08T05:11:07;22.80;54.40
8888;DHT22;4480;52.370;9.748;2023-07-08T05:13:33;22.90;54.10
8888;DHT22;4480;52.370;9.748;2023-07-08T05:16:00;23.10;53.80
8888;DHT22;4480;52.370;9.748;2023-07-08T05:18:27;23.20;53.40
8888;DHT22;4480;52.370;9.748;2023-07-08T05:20:55;23.30;53.10
8888;DHT22;4480;52.370;9.748;2023-07-08T05:23:22;23.30;52.90
8888;DHT22;4480;52.370;9.748;2023-07-08T05:25:50;23.40;52.50
8888;DHT22;4480;52.370;9.748;2023-07-08T05:28:16;23.50;52.20
8888;DHT22;4480;52.370;9.748;2023-07-08T05:30:43;23.60;52.10
8888;DHT22;4480;52.370;9.748;2023-07-08T05:33:10;23.60;51.80
8888;DHT22;4480;52.370;9.748;2023-07-08T05:35:37;23.50;51.60
8888;DHT22;4480;52.370;9.748;2023-07-08T05:38:05;23.40;51.70
8888;DHT22;4480;52.370;9.748;2023-07-08T05:40:31;23.50;52.30
8888;DHT22;4480;52.370;9.748;2023-07-08T05:42:58;23.50;51.40
8888;DHT22;4480;52.370;9.748;2023-07-08T05:45:25;23.50;51.50
8888;DHT22;4480;52.370;9.748;2023-07-08T05:47:51;23.40;51.50
8888;DHT22;4480;52.370;9.748;2023-07-08T05:50:18;23.50;51.50
8888;DHT22;4480;52.370;9.748;2023-07-08T05:52:45;23.60;51.30
8888;DHT22;4480;52.370;9.748;2023-07-08T05:55:13;23.70;51.20
8888;DHT22;4480;52.370;9.748;2023-07-08T05:57:40;23.60;50.80
8888;DHT22;4480;52.370;9.748;2023-07-08T06:00:07;23.50;50.80
8888;DHT22;4480;52.370;9.748;2023-07-08T06:02:34;23.40;50.90
8888;DHT22;4480;52.370;9.748;2023-07-08T06:05:01;23.30;51.10
8888;DHT22;4480;52.370;9.748;2023-07-08T06:07:28;23.20;51.20
8888;DHT22;4480;52.370;9.748;2023-07-08T06:09:55;23.20;51.30
8888;DHT22;4480;52.370;9.748;2023-07-08T06:12:24;23.20;51.20
8888;DHT22;4480;52.370;9.748;2023-07-08T06:14:50;23.10;51.30
8888;DHT22;4480;52.370;9.748;2023-07-08T06:17:17;23.00;51.40
8888;DHT22;4480;52.370;9.748;2023-07-08T06:19:44;22.90;51.70
8888;DHT22;4480;52.370;9.748;2023-07-08T06:22:11;22.80;52.00
8888;DHT22;4480;52.370;9.748;2023-07-08T06:24:38;22.70;52.00
8888;DHT22;4480;52.370;9.748;2023-07-08T06:27:05;22.60;52.20
8888;DHT22;4480;52.370;9.748;2023-07-08T06:29:35;22.60;52.40
8888;DHT22;4480;52.370;9.748;2023-07-08T06:32:02;22.60;52.50
8888;DHT22;4480;52.370;9.748;2023-07-08T06:34:29;22.60;53.20
8888;DHT22;4480;52.370;9.748;2023-07-08T06:36:55;22.70;52.60
8888;DHT22;4480;52.370;9.748;2023-07-08T06:39:22;22.70;52.40
8888;DHT22;4480;52.370;9.748;2023-07-08T06:41:49;22.70;52.50
8888;DHT22;4480;52.370;9.748;2023-07-08T06:44:16;22.70;52.50
8888;DHT22;4480;52.370;9.748;2023-07-08T06:46:44;22.70;52.60
8888;DHT22;4480;52.370;9.748;2023-07-08T06:49:11;22.70;52.70
8888;DHT22;4480;52.370;9.748;2023-07-08T06:51:38;22.70;52.80
8888;DHT22;4480;52.370;9.748;2023-07-08T06:54:05;22.70;52.80
8888;DHT22;4480;52.370;9.748;2023-07-08T06:56:37;22.80;52.90
8888;DHT22;4480;52.370;9.748;2023-07-08T06:59:04;22.80;52.80
8888;DHT22;4480;52.370;9.748;2023-07-08T07:01:30;22.90;52.90
8888;DHT22;4480;52.370;9.748;2023-07-08T07:03:58;22.90;52.90
8888;DHT22;4480;52.370;9.748;2023-07-08T07:06:25;22.90;52.90
8888;DHT22;4480;52.370;9.748;2023-07-08T07:08:52;23.00;52.90
8888;DHT22;4480;52.370;9.748;2023-07-08T07:11:19;23.10;52.80
8888;DHT22;4480;52.370;9.748;2023-07-08T07:13:46;23.20;52.70
8888;DHT22;4480;52.370;9.748;2023-07-08T07:16:13;23.30;52.50
8888;DHT22;4480;52.370;9.748;2023-07-08T07:18:40;23.40;52.30
8888;DHT22;4480;52.370;9.748;2023-07-08T07:21:08;23.50;52.10
8888;DHT22;4480;52.370;9.748;2023-07-08T07:23:35;23.70;52.00
8888;DHT22;4480;52.370;9.748;2023-07-08T07:26:02;23.70;51.80
8888;DHT22;4480;52.370;9.748;2023-07-08T07:28:30;23.80;51.70
8888;DHT22;4480;52.370;9.748;2023-07-08T07:30:57;23.90;51.60
8888;DHT22;4480;52.370;9.748;2023-07-08T07:33:25;24.00;51.70
8888;DHT22;4480;52.370;9.748;2023-07-08T07:35:52;24.10;51.70
8888;DHT22;4480;52.370;9.748;2023-07-08T07:38:20;24.20;51.50
8888;DHT22;4480;52.370;9.748;2023-07-08T07:40:47;24.30;51.20
8888;DHT22;4480;52.370;9.748;2023-07-08T07:43:13;24.40;50.90
8888;DHT22;4480;52.370;9.748;2023-07-08T07:45:40;24.50;50.60
8888;DHT22;4480;52.370;9.748;2023-07-08T07:48:07;24.60;50.50
8888;DHT22;4480;52.370;9.748;2023-07-08T07:50:34;24.70;50.50
8888;DHT22;4480;52.370;9.748;2023-07-08T07:53:00;24.80;50.20
8888;DHT22;4480;52.370;9.748;2023-07-08T07:55:28;24.90;50.00
8888;DHT22;4480;52.370;9.748;2023-07-08T07:57:55;25.00;49.90
8888;DHT22;4480;52.370;9.748;2023-07-08T08:00:22;25.00;49.70
8888;DHT22;4480;52.370;9.748;2023-07-08T08:02:48;25.10;49.60
8888;DHT22;4480;52.370;9.748;2023-07-08T08:05:15;25.10;49.50
8888;DHT22;4480;52.370;9.748;2023-07-08T08:07:43;25.20;49.40
8888;DHT22;4480;52.370;9.748;2023-07-08T08:10:10;25.30;49.30
8888;DHT22;4480;52.370;9.748;2023-07-08T08:12:38;25.40;49.10
8888;DHT22;4480;52.370;9.748;2023-07-08T08:15:05;25.50;49.00
8888;DHT22;4480;52.370;9.748;2023-07-08T08:17:32;25.70;48.80
8888;DHT22;4480;52.370;9.748;2023-07-08T08:19:59;25.80;48.60
8888;DHT22;4480;52.370;9.748;2023-07-08T08:22:26;25.90;48.30
8888;DHT22;4480;52.370;9.748;2023-07-08T08:24:53;26.10;48.00
8888;DHT22;4480;52.370;9.748;2023-07-08T08:27:20;26.20;47.70
8888;DHT22;4480;52.370;9.748;2023-07-08T08:29:48;26.20;47.50
8888;DHT22;4480;52.370;9.748;2023-07-08T08:32:15;26.30;47.60
8888;DHT22;4480;52.370;9.748;2023-07-08T08:34:42;26.50;47.50
8888;DHT22;4480;52.370;9.748;2023-07-08T08:37:10;26.70;47.30
8888;DHT22;4480;52.370;9.748;2023-07-08T08:39:37;26.80;47.10
8888;DHT22;4480;52.370;9.748;2023-07-08T08:42:04;26.80;47.10
8888;DHT22;4480;52.370;9.748;2023-07-08T08:44:37;26.90;47.30
8888;DHT22;4480;52.370;9.748;2023-07-08T08:47:11;27.00;47.40
8888;DHT22;4480;52.370;9.748;2023-07-08T08:49:50;27.00;47.30
8888;DHT22;4480;52.370;9.748;2023-07-08T08:52:20;27.10;47.20
8888;DHT22;4480;52.370;9.748;2023-07-08T08:54:46;27.20;47.10
8888;DHT22;4480;52.370;9.748;2023-07-08T08:57:28;27.30;47.00
8888;DHT22;4480;52.370;9.748;2023-07-08T08:59:58;27.40;46.90
8888;DHT22;4480;52.370;9.748;2023-07-08T09:02:36;27.50;46.70
8888;DHT22;4480;52.370;9.748;2023-07-08T09:05:06;27.60;46.70
8888;DHT22;4480;52.370;9.748;2023-07-08T09:07:38;27.70;46.40
8888;DHT22;4480;52.370;9.748;2023-07-08T09:10:12;27.90;46.10
8888;DHT22;4480;52.370;9.748;2023-07-08T09:12:40;28.00;45.80
8888;DHT22;4480;52.370;9.748;2023-07-08T09:15:12;28.00;45.60
8888;DHT22;4480;52.370;9.748;2023-07-08T09:17:40;28.10;45.50
8888;DHT22;4480;52.370;9.748;2023-07-08T09:20:17;28.20;45.50
8888;DHT22;4480;52.370;9.748;2023-07-08T09:22:48;28.30;45.00
8888;DHT22;4480;52.370;9.748;2023-07-08T09:25:24;28.50;44.60
8888;DHT22;4480;52.370;9.748;2023-07-08T09:27:51;28.70;43.90
8888;DHT22;4480;52.370;9.748;2023-07-08T09:30:20;28.80;43.40
8888;DHT22;4480;52.370;9.748;2023-07-08T09:32:48;28.90;43.20
8888;DHT22;4480;52.370;9.748;2023-07-08T09:35:18;28.90;43.00
8888;DHT22;4480;52.370;9.748;2023-07-08T09:37:47;28.90;42.60
8888;DHT22;4480;52.370;9.748;2023-07-08T09:40:17;29.00;42.40
8888;DHT22;4480;52.370;9.748;2023-07-08T09:42:48;29.10;42.20
8888;DHT22;4480;52.370;9.748;2023-07-08T09:45:19;29.20;42.20
8888;DHT22;4480;52.370;9.748;2023-07-08T09:47:49;29.40;41.90
8888;DHT22;4480;52.370;9.748;2023-07-08T09:50:21;29.50;41.70
8888;DHT22;4480;52.370;9.748;2023-07-08T09:52:48;29.60;41.70
8888;DHT22;4480;52.370;9.748;2023-07-08T09:55:15;29.60;41.50
8888;DHT22;4480;52.370;9.748;2023-07-08T09:57:43;29.70;41.50
8888;DHT22;4480;52.370;9.748;2023-07-08T10:00:15;29.80;41.40
8888;DHT22;4480;52.370;9.748;2023-07-08T10:02:45;29.90;41.30
8888;DHT22;4480;52.370;9.748;2023-07-08T10:05:19;29.90;41.10
8888;DHT22;4480;52.370;9.748;2023-07-08T10:07:47;29.90;40.90
8888;DHT22;4480;52.370;9.748;2023-07-08T10:10:18;30.00;40.80
8888;DHT22;4480;52.370;9.748;2023-07-08T10:12:55;30.00;40.60
8888;DHT22;4480;52.370;9.748;2023-07-08T10:15:27;30.20;40.30
8888;DHT22;4480;52.370;9.748;2023-07-08T10:17:55;30.30;39.80
8888;DHT22;4480;52.370;9.748;2023-07-08T10:20:24;30.50;39.50
8888;DHT22;4480;52.370;9.748;2023-07-08T10:23:02;30.70;39.40
8888;DHT22;4480;52.370;9.748;2023-07-08T10:25:39;30.90;39.10
8888;DHT22;4480;52.370;9.748;2023-07-08T10:28:23;31.00;38.60
8888;DHT22;4480;52.370;9.748;2023-07-08T10:31:09;31.20;38.50
8888;DHT22;4480;52.370;9.748;2023-07-08T10:33:52;31.20;38.30
8888;DHT22;4480;52.370;9.748;2023-07-08T10:36:28;31.30;38.00
8888;DHT22;4480;52.370;9.748;2023-07-08T10:39:13;31.30;37.70
8888;DHT22;4480;52.370;9.748;2023-07-08T10:41:52;31.40;37.60
8888;DHT22;4480;52.370;9.748;2023-07-08T10:44:25;31.40;37.40
8888;DHT22;4480;52.370;9.748;2023-07-08T10:47:01;31.50;37.40
8888;DHT22;4480;52.370;9.748;2023-07-08T10:49:42;31.60;37.30
8888;DHT22;4480;52.370;9.748;2023-07-08T10:52:27;31.70;37.20
8888;DHT22;4480;52.370;9.748;2023-07-08T10:55:09;31.80;37.00
8888;DHT22;4480;52.370;9.748;2023-07-08T11:00:34;31.90;36.10
8888;DHT22;4480;52.370;9.748;2023-07-08T11:06:05;31.90;35.30
8888;DHT22;4480;52.370;9.748;2023-07-08T11:08:39;32.00;35.00
8888;DHT22;4480;52.370;9.748;2023-07-08T11:11:12;32.00;34.60
8888;DHT22;4480;52.370;9.748;2023-07-08T11:13:47;32.10;34.70
8888;DHT22;4480;52.370;9.748;2023-07-08T11:16:19;32.10;34.60
8888;DHT22;4480;52.370;9.748;2023-07-08T11:18:52;32.20;34.60
8888;DHT22;4480;52.370;9.748;2023-07-08T11:21:23;32.20;34.30
8888;DHT22;4480;52.370;9.748;2023-07-08T11:23:56;32.20;33.80
8888;DHT22;4480;52.370;9.748;2023-07-08T11:26:28;32.30;33.60
8888;DHT22;4480;52.370;9.748;2023-07-08T11:28:58;32.30;33.10
8888;DHT22;4480;52.370;9.748;2023-07-08T11:31:32;32.40;32.90
8888;DHT22;4480;52.370;9.748;2023-07-08T11:34:00;32.40;32.70
8888;DHT22;4480;52.370;9.748;2023-07-08T11:36:28;32.60;32.40
8888;DHT22;4480;52.370;9.748;2023-07-08T11:38:58;32.60;32.00
8888;DHT22;4480;52.370;9.748;2023-07-08T11:41:27;32.60;31.90
8888;DHT22;4480;52.370;9.748;2023-07-08T11:43:58;32.60;31.80
8888;DHT22;4480;52.370;9.748;2023-07-08T11:46:28;32.60;31.60
8888;DHT22;4480;52.370;9.748;2023-07-08T11:49:02;32.60;31.60
8888;DHT22;4480;52.370;9.748;2023-07-08T11:55:00;32.80;31.90
8888;DHT22;4480;52.370;9.748;2023-07-08T11:57:35;32.90;31.70
8888;DHT22;4480;52.370;9.748;2023-07-08T12:00:18;32.90;31.40
8888;DHT22;4480;52.370;9.748;2023-07-08T12:02:51;33.20;31.30
8888;DHT22;4480;52.370;9.748;2023-07-08T12:05:29;33.80;30.60
8888;DHT22;4480;52.370;9.748;2023-07-08T12:07:57;34.40;29.90
8888;DHT22;4480;52.370;9.748;2023-07-08T12:10:32;35.00;29.40
8888;DHT22;4480;52.370;9.748;2023-07-08T12:12:59;35.50;28.70
8888;DHT22;4480;52.370;9.748;2023-07-08T12:15:27;35.90;28.20
8888;DHT22;4480;52.370;9.748;2023-07-08T12:17:58;36.30;28.00
8888;DHT22;4480;52.370;9.748;2023-07-08T12:20:27;36.50;27.40
8888;DHT22;4480;52.370;9.748;2023-07-08T12:22:54;36.80;27.40
8888;DHT22;4480;52.370;9.748;2023-07-08T12:25:23;36.90;26.80
8888;DHT22;4480;52.370;9.748;2023-07-08T12:27:52;36.90;27.20
8888;DHT22;4480;52.370;9.748;2023-07-08T12:30:19;37.00;26.40
8888;DHT22;4480;52.370;9.748;2023-07-08T12:32:46;36.90;26.30
8888;DHT22;4480;52.370;9.748;2023-07-08T12:35:21;36.90;26.00
8888;DHT22;4480;52.370;9.748;2023-07-08T12:37:51;36.80;25.80
8888;DHT22;4480;52.370;9.748;2023-07-08T12:40:19;36.80;25.70
8888;DHT22;4480;52.370;9.748;2023-07-08T12:42:47;36.80;25.70
8888;DHT22;4480;52.370;9.748;2023-07-08T12:45:19;36.50;26.00
8888;DHT22;4480;52.370;9.748;2023-07-08T12:47:46;36.20;25.90
8888;DHT22;4480;52.370;9.748;2023-07-08T12:50:14;35.80;26.10
8888;DHT22;4480;52.370;9.748;2023-07-08T12:52:43;35.40;26.50
8888;DHT22;4480;52.370;9.748;2023-07-08T12:55:11;35.00;26.60
8888;DHT22;4480;52.370;9.748;2023-07-08T12:57:42;34.60;27.00
8888;DHT22;4480;52.370;9.748;2023-07-08T13:00:15;34.30;27.40
8888;DHT22;4480;52.370;9.748;2023-07-08T13:02:44;34.10;27.50
8888;DHT22;4480;52.370;9.748;2023-07-08T13:05:13;34.00;27.60
8888;DHT22;4480;52.370;9.748;2023-07-08T13:07:42;33.80;27.70
8888;DHT22;4480;52.370;9.748;2023-07-08T13:10:18;33.80;28.20
8888;DHT22;4480;52.370;9.748;2023-07-08T13:12:48;33.80;28.30
8888;DHT22;4480;52.370;9.748;2023-07-08T13:15:22;33.80;28.30
8888;DHT22;4480;52.370;9.748;2023-07-08T13:17:49;33.70;28.10
8888;DHT22;4480;52.370;9.748;2023-07-08T13:20:17;33.60;27.90
8888;DHT22;4480;52.370;9.748;2023-07-08T13:22:48;33.60;28.00
8888;DHT22;4480;52.370;9.748;2023-07-08T13:25:17;33.50;27.90
8888;DHT22;4480;52.370;9.748;2023-07-08T13:27:55;33.40;27.90
8888;DHT22;4480;52.370;9.748;2023-07-08T13:30:25;33.20;28.00
8888;DHT22;4480;52.370;9.748;2023-07-08T13:32:53;33.10;28.20
8888;DHT22;4480;52.370;9.748;2023-07-08T13:35:25;33.10;28.10
8888;DHT22;4480;52.370;9.748;2023-07-08T13:37:54;33.10;28.40
8888;DHT22;4480;52.370;9.748;2023-07-08T13:40:22;33.20;28.70
8888;DHT22;4480;52.370;9.748;2023-07-08T13:42:50;33.30;28.90
8888;DHT22;4480;52.370;9.748;2023-07-08T13:45:24;33.40;29.20
8888;DHT22;4480;52.370;9.748;2023-07-08T13:47:59;33.40;29.40
8888;DHT22;4480;52.370;9.748;2023-07-08T13:50:30;33.40;29.50
8888;DHT22;4480;52.370;9.748;2023-07-08T13:53:00;33.40;29.50
8888;DHT22;4480;52.370;9.748;2023-07-08T13:55:30;33.40;29.20
8888;DHT22;4480;52.370;9.748;2023-07-08T13:57:59;33.40;29.50
8888;DHT22;4480;52.370;9.748;2023-07-08T14:00:31;33.40;29.00
8888;DHT22;4480;52.370;9.748;2023-07-08T14:02:58;33.40;29.20
8888;DHT22;4480;52.370;9.748;2023-07-08T14:05:25;33.40;29.40
8888;DHT22;4480;52.370;9.748;2023-07-08T14:07:51;33.60;29.50
8888;DHT22;4480;52.370;9.748;2023-07-08T14:10:18;33.60;29.40
8888;DHT22;4480;52.370;9.748;2023-07-08T14:12:45;33.60;29.50
8888;DHT22;4480;52.370;9.748;2023-07-08T14:15:12;33.60;29.50
8888;DHT22;4480;52.370;9.748;2023-07-08T14:17:40;33.60;29.40
8888;DHT22;4480;52.370;9.748;2023-07-08T14:20:13;33.60;29.30
8888;DHT22;4480;52.370;9.748;2023-07-08T14:22:41;33.40;29.30
8888;DHT22;4480;52.370;9.748;2023-07-08T14:25:09;33.30;29.50
8888;DHT22;4480;52.370;9.748;2023-07-08T14:27:37;33.30;29.80
8888;DHT22;4480;52.370;9.748;2023-07-08T14:30:04;33.30;29.60
8888;DHT22;4480;52.370;9.748;2023-07-08T14:32:32;33.30;29.20
8888;DHT22;4480;52.370;9.748;2023-07-08T14:35:14;33.40;29.30
8888;DHT22;4480;52.370;9.748;2023-07-08T14:37:41;33.50;29.30
8888;DHT22;4480;52.370;9.748;2023-07-08T14:40:24;33.60;29.30
8888;DHT22;4480;52.370;9.748;2023-07-08T14:42:56;33.60;29.30
8888;DHT22;4480;52.370;9.748;2023-07-08T14:45:24;33.60;29.30
8888;DHT22;4480;52.370;9.748;2023-07-08T14:47:51;33.60;29.40
8888;DHT22;4480;52.370;9.748;2023-07-08T14:50:19;33.60;29.40
8888;DHT22;4480;52.370;9.748;2023-07-08T14:52:46;33.50;29.40
8888;DHT22;4480;52.370;9.748;2023-07-08T14:55:13;33.60;29.30
8888;DHT22;4480;52.370;9.748;2023-07-08T14:57:43;33.60;29.10
8888;DHT22;4480;52.370;9.748;2023-07-08T15:00:12;33.60;29.10
8888;DHT22;4480;52.370;9.748;2023-07-08T15:02:41;33.50;29.10
8888;DHT22;4480;52.370;9.748;2023-07-08T15:05:14;33.50;29.30
8888;DHT22;4480;52.370;9.748;2023-07-08T15:07:43;33.50;29.40
8888;DHT22;4480;52.370;9.748;2023-07-08T15:10:10;33.50;29.20
8888;DHT22;4480;52.370;9.748;2023-07-08T15:12:37;33.60;29.20
8888;DHT22;4480;52.370;9.748;2023-07-08T15:15:05;33.50;29.10
8888;DHT22;4480;52.370;9.748;2023-07-08T15:17:32;33.40;29.10
8888;DHT22;4480;52.370;9.748;2023-07-08T15:19:59;33.40;29.00
8888;DHT22;4480;52.370;9.748;2023-07-08T15:22:26;33.40;29.00
8888;DHT22;4480;52.370;9.748;2023-07-08T15:24:54;33.40;29.20
8888;DHT22;4480;52.370;9.748;2023-07-08T15:27:22;33.40;29.30
8888;DHT22;4480;52.370;9.748;2023-07-08T15:29:49;33.50;29.40
8888;DHT22;4480;52.370;9.748;2023-07-08T15:32:16;33.50;29.30
8888;DHT22;4480;52.370;9.748;2023-07-08T15:34:46;33.50;29.10
8888;DHT22;4480;52.370;9.748;2023-07-08T15:37:12;33.40;29.20
8888;DHT22;4480;52.370;9.748;2023-07-08T15:39:39;33.50;29.30
8888;DHT22;4480;52.370;9.748;2023-07-08T15:42:11;33.60;29.10
8888;DHT22;4480;52.370;9.748;2023-07-08T15:44:38;33.50;29.00
8888;DHT22;4480;52.370;9.748;2023-07-08T15:47:09;33.50;28.80
8888;DHT22;4480;52.370;9.748;2023-07-08T15:49:38;33.50;28.70
8888;DHT22;4480;52.370;9.748;2023-07-08T15:52:06;33.50;28.60
8888;DHT22;4480;52.370;9.748;2023-07-08T15:54:36;33.60;28.60
8888;DHT22;4480;52.370;9.748;2023-07-08T15:57:03;33.60;28.50
8888;DHT22;4480;52.370;9.748;2023-07-08T15:59:33;33.60;28.40
8888;DHT22;4480;52.370;9.748;2023-07-08T16:02:03;33.60;27.80
8888;DHT22;4480;52.370;9.748;2023-07-08T16:04:32;33.50;27.70
8888;DHT22;4480;52.370;9.748;2023-07-08T16:07:00;33.60;27.80
8888;DHT22;4480;52.370;9.748;2023-07-08T16:09:27;33.60;27.70
8888;DHT22;4480;52.370;9.748;2023-07-08T16:11:54;33.70;27.50
8888;DHT22;4480;52.370;9.748;2023-07-08T16:14:21;33.70;27.50
8888;DHT22;4480;52.370;9.748;2023-07-08T16:16:49;33.60;27.60
8888;DHT22;4480;52.370;9.748;2023-07-08T16:19:16;33.70;27.70
8888;DHT22;4480;52.370;9.748;2023-07-08T16:21:43;34.00;27.40
8888;DHT22;4480;52.370;9.748;2023-07-08T16:24:09;34.50;26.80